sensor_id;sensor_type;location;lat;lon;timestamp;P1;durP1;ratioP1;P2;durP2;ratioP2
81124;SDS011;72192;52.114;5.424;2024-02-28T00:05:29;31.75;;;12.30;;
81124;SDS011;72192;52.114;5.424;2024-02-28T00:07:57;32.95;;;12.93;;
81124;SDS011;72192;52.114;5.424;2024-02-28T00:10:26;36.08;;;13.77;;
81124;SDS011;72192;52.114;5.424;2024-02-28T00:12:56;31.57;;;12.53;;
81124;SDS011;72192;52.114;5.424;2024-02-28T00:18:00;34.15;;;14.15;;
81124;SDS011;72192;52.114;5.424;2024-02-28T00:20:29;36.27;;;13.87;;
81124;SDS011;72192;52.114;5.424;2024-02-28T00:28:14;33.45;;;13.45;;
81124;SDS011;72192;52.114;5.424;2024-02-28T00:30:42;35.38;;;13.43;;
81124;SDS011;72192;52.114;5.424;2024-02-28T00:33:11;36.85;;;13.57;;
81124;SDS011;72192;52.114;5.424;2024-02-28T00:35:39;30.63;;;13.55;;
81124;SDS011;72192;52.114;5.424;2024-02-28T00:38:09;34.13;;;13.43;;
81124;SDS011;72192;52.114;5.424;2024-02-28T00:40:39;29.70;;;13.45;;
81124;SDS011;72192;52.114;5.424;2024-02-28T00:43:07;31.42;;;11.25;;
81124;SDS011;72192;52.114;5.424;2024-02-28T00:45:36;29.30;;;13.45;;
81124;SDS011;72192;52.114;5.424;2024-02-28T00:48:04;38.17;;;14.70;;
81124;SDS011;72192;52.114;5.424;2024-02-28T00:50:33;31.50;;;12.77;;
81124;SDS011;72192;52.114;5.424;2024-02-28T00:53:01;30.60;;;13.25;;
81124;SDS011;72192;52.114;5.424;2024-02-28T00:55:31;32.40;;;12.18;;
81124;SDS011;72192;52.114;5.424;2024-02-28T00:57:59;33.40;;;13.15;;
81124;SDS011;72192;52.114;5.424;2024-02-28T01:00:28;32.30;;;11.95;;
81124;SDS011;72192;52.114;5.424;2024-02-28T01:02:57;35.50;;;13.55;;
81124;SDS011;72192;52.114;5.424;2024-02-28T01:08:08;32.90;;;12.48;;
81124;SDS011;72192;52.114;5.424;2024-02-28T01:10:37;38.30;;;14.70;;
81124;SDS011;72192;52.114;5.424;2024-02-28T01:13:06;39.38;;;14.85;;
81124;SDS011;72192;52.114;5.424;2024-02-28T01:18:20;35.03;;;14.02;;
81124;SDS011;72192;52.114;5.424;2024-02-28T01:20:48;30.17;;;12.35;;
81124;SDS011;72192;52.114;5.424;2024-02-28T01:23:17;34.03;;;14.50;;
81124;SDS011;72192;52.114;5.424;2024-02-28T01:25:46;36.65;;;14.32;;
81124;SDS011;72192;52.114;5.424;2024-02-28T01:28:15;29.23;;;11.55;;
81124;SDS011;72192;52.114;5.424;2024-02-28T01:30:43;32.60;;;12.65;;
81124;SDS011;72192;52.114;5.424;2024-02-28T01:33:12;35.47;;;12.13;;
81124;SDS011;72192;52.114;5.424;2024-02-28T01:35:42;31.60;;;12.60;;
81124;SDS011;72192;52.114;5.424;2024-02-28T01:40:48;51.97;;;14.60;;
81124;SDS011;72192;52.114;5.424;2024-02-28T01:43:16;84.20;;;16.10;;
81124;SDS011;72192;52.114;5.424;2024-02-28T01:45:46;135.15;;;18.90;;
81124;SDS011;72192;52.114;5.424;2024-02-28T01:50:49;114.32;;;13.82;;
81124;SDS011;72192;52.114;5.424;2024-02-28T01:53:17;123.60;;;13.90;;
81124;SDS011;72192;52.114;5.424;2024-02-28T01:55:48;74.07;;;10.88;;
81124;SDS011;72192;52.114;5.424;2024-02-28T02:00:53;106.03;;;13.00;;
81124;SDS011;72192;52.114;5.424;2024-02-28T02:03:22;53.50;;;11.02;;
81124;SDS011;72192;52.114;5.424;2024-02-28T02:05:51;69.75;;;11.95;;
81124;SDS011;72192;52.114;5.424;2024-02-28T02:08:21;55.35;;;10.55;;
81124;SDS011;72192;52.114;5.424;2024-02-28T02:10:53;41.00;;;10.40;;
81124;SDS011;72192;52.114;5.424;2024-02-28T02:13:22;61.47;;;9.63;;
81124;SDS011;72192;52.114;5.424;2024-02-28T02:15:50;96.40;;;13.50;;
81124;SDS011;72192;52.114;5.424;2024-02-28T02:18:19;42.80;;;8.95;;
81124;SDS011;72192;52.114;5.424;2024-02-28T02:20:49;105.27;;;14.17;;
81124;SDS011;72192;52.114;5.424;2024-02-28T02:23:22;39.03;;;10.65;;
81124;SDS011;72192;52.114;5.424;2024-02-28T02:25:51;65.85;;;11.73;;
81124;SDS011;72192;52.114;5.424;2024-02-28T02:28:19;38.40;;;10.55;;
81124;SDS011;72192;52.114;5.424;2024-02-28T02:30:47;43.13;;;10.68;;
81124;SDS011;72192;52.114;5.424;2024-02-28T02:33:15;44.60;;;11.07;;
81124;SDS011;72192;52.114;5.424;2024-02-28T02:35:43;35.33;;;10.90;;
81124;SDS011;72192;52.114;5.424;2024-02-28T02:38:14;57.70;;;12.75;;
81124;SDS011;72192;52.114;5.424;2024-02-28T02:45:53;39.15;;;10.00;;
81124;SDS011;72192;52.114;5.424;2024-02-28T02:50:52;38.88;;;10.02;;
81124;SDS011;72192;52.114;5.424;2024-02-28T02:53:20;36.00;;;10.40;;
81124;SDS011;72192;52.114;5.424;2024-02-28T02:55:49;30.85;;;11.52;;
81124;SDS011;72192;52.114;5.424;2024-02-28T02:58:17;38.15;;;10.15;;
81124;SDS011;72192;52.114;5.424;2024-02-28T03:00:47;38.33;;;11.38;;
81124;SDS011;72192;52.114;5.424;2024-02-28T03:03:16;56.38;;;11.77;;
81124;SDS011;72192;52.114;5.424;2024-02-28T03:05:44;36.42;;;10.60;;
81124;SDS011;72192;52.114;5.424;2024-02-28T03:08:14;64.63;;;14.52;;
81124;SDS011;72192;52.114;5.424;2024-02-28T03:13:19;43.05;;;11.45;;
81124;SDS011;72192;52.114;5.424;2024-02-28T03:15:48;38.65;;;11.88;;
81124;SDS011;72192;52.114;5.424;2024-02-28T03:18:16;41.97;;;10.70;;
81124;SDS011;72192;52.114;5.424;2024-02-28T03:23:22;43.60;;;13.55;;
81124;SDS011;72192;52.114;5.424;2024-02-28T03:25:52;45.17;;;11.68;;
81124;SDS011;72192;52.114;5.424;2024-02-28T03:28:20;47.58;;;12.55;;
81124;SDS011;72192;52.114;5.424;2024-02-28T03:33:30;33.00;;;12.13;;
81124;SDS011;72192;52.114;5.424;2024-02-28T03:36:01;41.80;;;12.20;;
81124;SDS011;72192;52.114;5.424;2024-02-28T03:38:30;33.95;;;12.93;;
81124;SDS011;72192;52.114;5.424;2024-02-28T03:40:59;33.17;;;11.10;;
81124;SDS011;72192;52.114;5.424;2024-02-28T03:43:27;51.93;;;12.83;;
81124;SDS011;72192;52.114;5.424;2024-02-28T03:45:55;53.20;;;12.00;;
81124;SDS011;72192;52.114;5.424;2024-02-28T03:48:23;39.60;;;12.50;;
81124;SDS011;72192;52.114;5.424;2024-02-28T03:50:51;68.85;;;12.55;;
81124;SDS011;72192;52.114;5.424;2024-02-28T03:55:52;49.25;;;12.95;;
81124;SDS011;72192;52.114;5.424;2024-02-28T03:58:21;33.15;;;10.65;;
81124;SDS011;72192;52.114;5.424;2024-02-28T04:00:49;44.15;;;10.65;;
81124;SDS011;72192;52.114;5.424;2024-02-28T04:13:50;23.10;;;9.95;;
81124;SDS011;72192;52.114;5.424;2024-02-28T04:21:38;22.25;;;10.90;;
81124;SDS011;72192;52.114;5.424;2024-02-28T04:24:06;21.42;;;10.20;;
81124;SDS011;72192;52.114;5.424;2024-02-28T04:26:37;21.40;;;10.35;;
81124;SDS011;72192;52.114;5.424;2024-02-28T04:29:05;23.00;;;10.60;;
81124;SDS011;72192;52.114;5.424;2024-02-28T04:31:37;20.92;;;9.68;;
81124;SDS011;72192;52.114;5.424;2024-02-28T04:34:06;21.25;;;9.00;;
81124;SDS011;72192;52.114;5.424;2024-02-28T04:36:34;22.40;;;10.45;;
81124;SDS011;72192;52.114;5.424;2024-02-28T04:39:03;24.97;;;11.20;;
81124;SDS011;72192;52.114;5.424;2024-02-28T04:41:34;19.92;;;10.05;;
81124;SDS011;72192;52.114;5.424;2024-02-28T04:44:03;24.83;;;10.98;;
81124;SDS011;72192;52.114;5.424;2024-02-28T04:46:33;20.83;;;10.10;;
81124;SDS011;72192;52.114;5.424;2024-02-28T04:49:02;20.25;;;10.40;;
81124;SDS011;72192;52.114;5.424;2024-02-28T04:51:30;20.30;;;9.43;;
81124;SDS011;72192;52.114;5.424;2024-02-28T04:53:58;24.37;;;10.93;;
81124;SDS011;72192;52.114;5.424;2024-02-28T04:56:26;19.10;;;8.95;;
81124;SDS011;72192;52.114;5.424;2024-02-28T05:04:00;21.80;;;10.25;;
81124;SDS011;72192;52.114;5.424;2024-02-28T05:06:29;18.60;;;9.65;;
81124;SDS011;72192;52.114;5.424;2024-02-28T05:08:57;19.85;;;9.00;;
81124;SDS011;72192;52.114;5.424;2024-02-28T05:11:25;22.03;;;10.67;;
81124;SDS011;72192;52.114;5.424;2024-02-28T05:16:29;19.63;;;10.13;;
81124;SDS011;72192;52.114;5.424;2024-02-28T05:18:58;20.70;;;9.50;;
81124;SDS011;72192;52.114;5.424;2024-02-28T05:21:27;24.00;;;10.30;;
81124;SDS011;72192;52.114;5.424;2024-02-28T05:23:56;18.25;;;10.13;;
81124;SDS011;72192;52.114;5.424;2024-02-28T05:26:23;20.27;;;9.00;;
81124;SDS011;72192;52.114;5.424;2024-02-28T05:28:51;19.02;;;9.52;;
81124;SDS011;72192;52.114;5.424;2024-02-28T05:31:24;19.50;;;10.20;;
81124;SDS011;72192;52.114;5.424;2024-02-28T05:36:24;20.80;;;10.40;;
81124;SDS011;72192;52.114;5.424;2024-02-28T05:41:30;18.95;;;9.85;;
81124;SDS011;72192;52.114;5.424;2024-02-28T05:43:58;19.75;;;10.35;;
81124;SDS011;72192;52.114;5.424;2024-02-28T05:49:04;22.23;;;10.27;;
81124;SDS011;72192;52.114;5.424;2024-02-28T05:51:32;25.55;;;10.93;;
81124;SDS011;72192;52.114;5.424;2024-02-28T05:54:00;21.00;;;10.90;;
81124;SDS011;72192;52.114;5.424;2024-02-28T05:56:28;17.00;;;9.15;;
81124;SDS011;72192;52.114;5.424;2024-02-28T05:58:58;18.23;;;9.43;;
81124;SDS011;72192;52.114;5.424;2024-02-28T06:01:26;19.90;;;10.60;;
81124;SDS011;72192;52.114;5.424;2024-02-28T06:03:55;22.20;;;11.33;;
81124;SDS011;72192;52.114;5.424;2024-02-28T06:06:24;21.58;;;11.15;;
81124;SDS011;72192;52.114;5.424;2024-02-28T06:08:53;23.23;;;10.25;;
81124;SDS011;72192;52.114;5.424;2024-02-28T06:11:21;18.30;;;10.40;;
81124;SDS011;72192;52.114;5.424;2024-02-28T06:13:52;17.50;;;9.45;;
81124;SDS011;72192;52.114;5.424;2024-02-28T06:16:21;18.70;;;9.70;;
81124;SDS011;72192;52.114;5.424;2024-02-28T06:18:50;20.50;;;9.85;;
81124;SDS011;72192;52.114;5.424;2024-02-28T06:21:21;17.70;;;9.35;;
81124;SDS011;72192;52.114;5.424;2024-02-28T06:23:51;21.15;;;10.20;;
81124;SDS011;72192;52.114;5.424;2024-02-28T06:26:19;18.47;;;10.40;;
81124;SDS011;72192;52.114;5.424;2024-02-28T06:28:48;19.40;;;10.50;;
81124;SDS011;72192;52.114;5.424;2024-02-28T06:31:19;16.50;;;10.00;;
81124;SDS011;72192;52.114;5.424;2024-02-28T06:33:47;19.85;;;9.63;;
81124;SDS011;72192;52.114;5.424;2024-02-28T06:36:16;20.15;;;9.70;;
81124;SDS011;72192;52.114;5.424;2024-02-28T06:38:45;16.83;;;9.98;;
81124;SDS011;72192;52.114;5.424;2024-02-28T06:41:12;22.15;;;10.95;;
81124;SDS011;72192;52.114;5.424;2024-02-28T06:46:18;19.40;;;9.50;;
81124;SDS011;72192;52.114;5.424;2024-02-28T06:48:47;20.40;;;10.25;;
81124;SDS011;72192;52.114;5.424;2024-02-28T06:51:16;21.60;;;11.10;;
81124;SDS011;72192;52.114;5.424;2024-02-28T06:53:50;20.00;;;10.57;;
81124;SDS011;72192;52.114;5.424;2024-02-28T06:56:18;20.55;;;9.55;;
81124;SDS011;72192;52.114;5.424;2024-02-28T06:58:46;17.23;;;9.43;;
81124;SDS011;72192;52.114;5.424;2024-02-28T07:01:15;20.30;;;10.03;;
81124;SDS011;72192;52.114;5.424;2024-02-28T07:03:43;19.00;;;10.80;;
81124;SDS011;72192;52.114;5.424;2024-02-28T07:06:14;21.07;;;10.77;;
81124;SDS011;72192;52.114;5.424;2024-02-28T07:08:44;22.80;;;10.60;;
81124;SDS011;72192;52.114;5.424;2024-02-28T07:11:14;19.85;;;10.02;;
81124;SDS011;72192;52.114;5.424;2024-02-28T07:13:45;19.25;;;10.32;;
81124;SDS011;72192;52.114;5.424;2024-02-28T07:21:21;18.60;;;9.95;;
81124;SDS011;72192;52.114;5.424;2024-02-28T07:23:49;18.75;;;10.02;;
81124;SDS011;72192;52.114;5.424;2024-02-28T07:26:18;16.15;;;9.65;;
81124;SDS011;72192;52.114;5.424;2024-02-28T07:31:22;16.52;;;9.43;;
81124;SDS011;72192;52.114;5.424;2024-02-28T07:33:50;19.17;;;9.53;;
81124;SDS011;72192;52.114;5.424;2024-02-28T07:36:18;18.05;;;10.20;;
81124;SDS011;72192;52.114;5.424;2024-02-28T07:38:50;18.33;;;10.15;;
81124;SDS011;72192;52.114;5.424;2024-02-28T07:41:22;18.70;;;10.25;;
81124;SDS011;72192;52.114;5.424;2024-02-28T07:43:51;20.92;;;10.85;;
81124;SDS011;72192;52.114;5.424;2024-02-28T07:46:21;18.50;;;9.50;;
81124;SDS011;72192;52.114;5.424;2024-02-28T07:48:52;17.85;;;9.52;;
81124;SDS011;72192;52.114;5.424;2024-02-28T07:51:20;24.77;;;10.93;;
81124;SDS011;72192;52.114;5.424;2024-02-28T07:53:49;18.55;;;10.70;;
81124;SDS011;72192;52.114;5.424;2024-02-28T07:56:17;17.52;;;11.55;;
81124;SDS011;72192;52.114;5.424;2024-02-28T07:58:49;18.48;;;10.48;;
81124;SDS011;72192;52.114;5.424;2024-02-28T08:01:18;22.15;;;10.80;;
81124;SDS011;72192;52.114;5.424;2024-02-28T08:03:47;19.10;;;11.77;;
81124;SDS011;72192;52.114;5.424;2024-02-28T08:06:15;18.10;;;9.07;;
81124;SDS011;72192;52.114;5.424;2024-02-28T08:08:46;14.93;;;8.60;;
81124;SDS011;72192;52.114;5.424;2024-02-28T08:11:15;16.45;;;9.68;;
81124;SDS011;72192;52.114;5.424;2024-02-28T08:18:55;19.30;;;10.40;;
81124;SDS011;72192;52.114;5.424;2024-02-28T08:21:23;21.20;;;11.50;;
81124;SDS011;72192;52.114;5.424;2024-02-28T08:23:51;18.38;;;11.77;;
81124;SDS011;72192;52.114;5.424;2024-02-28T08:26:18;17.17;;;11.38;;
81124;SDS011;72192;52.114;5.424;2024-02-28T08:31:15;18.30;;;10.77;;
81124;SDS011;72192;52.114;5.424;2024-02-28T08:33:44;16.60;;;9.70;;
81124;SDS011;72192;52.114;5.424;2024-02-28T08:36:16;20.33;;;12.13;;
81124;SDS011;72192;52.114;5.424;2024-02-28T08:38:45;21.27;;;12.75;;
81124;SDS011;72192;52.114;5.424;2024-02-28T08:41:13;21.40;;;12.48;;
81124;SDS011;72192;52.114;5.424;2024-02-28T08:43:41;18.65;;;11.60;;
81124;SDS011;72192;52.114;5.424;2024-02-28T08:46:09;20.52;;;9.77;;
81124;SDS011;72192;52.114;5.424;2024-02-28T08:48:42;24.33;;;12.95;;
81124;SDS011;72192;52.114;5.424;2024-02-28T08:51:10;20.55;;;10.77;;
81124;SDS011;72192;52.114;5.424;2024-02-28T08:53:38;19.25;;;10.10;;
81124;SDS011;72192;52.114;5.424;2024-02-28T08:56:05;22.73;;;14.55;;
81124;SDS011;72192;52.114;5.424;2024-02-28T08:58:32;21.75;;;11.68;;
81124;SDS011;72192;52.114;5.424;2024-02-28T09:01:00;21.90;;;13.10;;
81124;SDS011;72192;52.114;5.424;2024-02-28T09:03:28;26.42;;;14.77;;
81124;SDS011;72192;52.114;5.424;2024-02-28T09:08:32;21.40;;;13.00;;
81124;SDS011;72192;52.114;5.424;2024-02-28T09:13:35;27.27;;;14.32;;
81124;SDS011;72192;52.114;5.424;2024-02-28T09:16:03;24.77;;;14.88;;
81124;SDS011;72192;52.114;5.424;2024-02-28T09:18:32;26.75;;;15.00;;
81124;SDS011;72192;52.114;5.424;2024-02-28T09:21:01;27.07;;;15.17;;
81124;SDS011;72192;52.114;5.424;2024-02-28T09:23:30;20.17;;;11.82;;
81124;SDS011;72192;52.114;5.424;2024-02-28T09:26:02;21.70;;;12.70;;
81124;SDS011;72192;52.114;5.424;2024-02-28T09:28:33;24.85;;;14.75;;
81124;SDS011;72192;52.114;5.424;2024-02-28T09:31:00;20.65;;;12.10;;
81124;SDS011;72192;52.114;5.424;2024-02-28T09:33:32;26.00;;;14.85;;
81124;SDS011;72192;52.114;5.424;2024-02-28T09:36:04;24.05;;;14.45;;
81124;SDS011;72192;52.114;5.424;2024-02-28T09:38:33;23.10;;;12.15;;
81124;SDS011;72192;52.114;5.424;2024-02-28T09:41:02;22.88;;;13.05;;
81124;SDS011;72192;52.114;5.424;2024-02-28T09:43:31;18.75;;;10.70;;
81124;SDS011;72192;52.114;5.424;2024-02-28T09:53:56;19.95;;;11.82;;
81124;SDS011;72192;52.114;5.424;2024-02-28T09:56:28;19.65;;;11.70;;
81124;SDS011;72192;52.114;5.424;2024-02-28T09:58:57;26.70;;;13.95;;
81124;SDS011;72192;52.114;5.424;2024-02-28T10:01:27;21.60;;;11.93;;
81124;SDS011;72192;52.114;5.424;2024-02-28T10:03:59;21.87;;;12.67;;
81124;SDS011;72192;52.114;5.424;2024-02-28T10:06:30;18.27;;;10.02;;
81124;SDS011;72192;52.114;5.424;2024-02-28T10:08:58;21.63;;;12.02;;
81124;SDS011;72192;52.114;5.424;2024-02-28T10:11:27;20.70;;;11.30;;
81124;SDS011;72192;52.114;5.424;2024-02-28T10:16:26;23.30;;;12.07;;
81124;SDS011;72192;52.114;5.424;2024-02-28T10:18:55;22.33;;;11.63;;
81124;SDS011;72192;52.114;5.424;2024-02-28T10:21:24;25.00;;;12.55;;
81124;SDS011;72192;52.114;5.424;2024-02-28T10:26:19;19.00;;;8.85;;
81124;SDS011;72192;52.114;5.424;2024-02-28T10:28:46;22.88;;;13.40;;
81124;SDS011;72192;52.114;5.424;2024-02-28T10:31:15;22.88;;;11.88;;
81124;SDS011;72192;52.114;5.424;2024-02-28T10:33:43;23.42;;;12.90;;
81124;SDS011;72192;52.114;5.424;2024-02-28T10:38:47;21.75;;;12.57;;
81124;SDS011;72192;52.114;5.424;2024-02-28T10:41:18;21.73;;;12.83;;
81124;SDS011;72192;52.114;5.424;2024-02-28T10:43:48;21.02;;;12.10;;
81124;SDS011;72192;52.114;5.424;2024-02-28T10:46:22;19.30;;;11.27;;
81124;SDS011;72192;52.114;5.424;2024-02-28T10:49:04;23.33;;;12.02;;
81124;SDS011;72192;52.114;5.424;2024-02-28T10:57:12;22.40;;;14.13;;
81124;SDS011;72192;52.114;5.424;2024-02-28T10:59:42;27.00;;;15.10;;
81124;SDS011;72192;52.114;5.424;2024-02-28T11:02:12;22.85;;;12.60;;
81124;SDS011;72192;52.114;5.424;2024-02-28T11:04:44;24.60;;;13.63;;
81124;SDS011;72192;52.114;5.424;2024-02-28T11:07:19;27.30;;;15.90;;
81124;SDS011;72192;52.114;5.424;2024-02-28T11:12:32;23.10;;;12.52;;
81124;SDS011;72192;52.114;5.424;2024-02-28T11:15:01;25.33;;;15.50;;
81124;SDS011;72192;52.114;5.424;2024-02-28T11:20:11;20.60;;;12.20;;
81124;SDS011;72192;52.114;5.424;2024-02-28T11:25:11;25.73;;;13.45;;
81124;SDS011;72192;52.114;5.424;2024-02-28T11:27:48;21.98;;;12.25;;
81124;SDS011;72192;52.114;5.424;2024-02-28T11:32:48;25.50;;;13.10;;
81124;SDS011;72192;52.114;5.424;2024-02-28T11:35:27;23.98;;;12.32;;
81124;SDS011;72192;52.114;5.424;2024-02-28T11:37:56;27.10;;;12.40;;
81124;SDS011;72192;52.114;5.424;2024-02-28T11:40:24;18.97;;;9.27;;
81124;SDS011;72192;52.114;5.424;2024-02-28T11:42:52;30.17;;;12.50;;
81124;SDS011;72192;52.114;5.424;2024-02-28T11:45:22;24.83;;;12.55;;
81124;SDS011;72192;52.114;5.424;2024-02-28T11:50:26;25.60;;;13.95;;
81124;SDS011;72192;52.114;5.424;2024-02-28T11:52:58;26.65;;;13.05;;
81124;SDS011;72192;52.114;5.424;2024-02-28T11:55:27;21.90;;;13.15;;
81124;SDS011;72192;52.114;5.424;2024-02-28T11:57:55;17.83;;;9.88;;
81124;SDS011;72192;52.114;5.424;2024-02-28T12:00:24;26.40;;;13.25;;
81124;SDS011;72192;52.114;5.424;2024-02-28T12:02:52;26.63;;;14.30;;
81124;SDS011;72192;52.114;5.424;2024-02-28T12:08:05;29.27;;;14.35;;
81124;SDS011;72192;52.114;5.424;2024-02-28T12:13:05;24.83;;;12.45;;
81124;SDS011;72192;52.114;5.424;2024-02-28T12:20:44;21.13;;;10.57;;
81124;SDS011;72192;52.114;5.424;2024-02-28T12:23:13;19.75;;;10.18;;
81124;SDS011;72192;52.114;5.424;2024-02-28T12:28:10;24.93;;;11.83;;
81124;SDS011;72192;52.114;5.424;2024-02-28T12:30:40;24.80;;;10.05;;
81124;SDS011;72192;52.114;5.424;2024-02-28T12:33:12;19.33;;;10.88;;
81124;SDS011;72192;52.114;5.424;2024-02-28T12:35:41;21.48;;;10.18;;
81124;SDS011;72192;52.114;5.424;2024-02-28T12:38:12;24.27;;;11.40;;
81124;SDS011;72192;52.114;5.424;2024-02-28T12:40:42;19.45;;;10.25;;
81124;SDS011;72192;52.114;5.424;2024-02-28T12:43:11;22.20;;;12.23;;
81124;SDS011;72192;52.114;5.424;2024-02-28T12:45:39;21.77;;;11.50;;
81124;SDS011;72192;52.114;5.424;2024-02-28T12:50:35;19.85;;;9.65;;
81124;SDS011;72192;52.114;5.424;2024-02-28T12:53:03;21.77;;;11.90;;
81124;SDS011;72192;52.114;5.424;2024-02-28T12:55:32;19.60;;;9.85;;
81124;SDS011;72192;52.114;5.424;2024-02-28T12:58:00;23.15;;;10.75;;
81124;SDS011;72192;52.114;5.424;2024-02-28T13:00:34;22.70;;;11.05;;
81124;SDS011;72192;52.114;5.424;2024-02-28T13:03:03;21.70;;;11.40;;
81124;SDS011;72192;52.114;5.424;2024-02-28T13:05:34;20.20;;;11.55;;
81124;SDS011;72192;52.114;5.424;2024-02-28T13:08:05;23.17;;;11.95;;
81124;SDS011;72192;52.114;5.424;2024-02-28T13:13:11;23.75;;;11.00;;
81124;SDS011;72192;52.114;5.424;2024-02-28T13:18:42;18.70;;;10.25;;
81124;SDS011;72192;52.114;5.424;2024-02-28T13:21:14;25.08;;;12.05;;
81124;SDS011;72192;52.114;5.424;2024-02-28T13:23:42;18.55;;;11.45;;
81124;SDS011;72192;52.114;5.424;2024-02-28T13:26:12;21.93;;;11.20;;
81124;SDS011;72192;52.114;5.424;2024-02-28T13:28:46;19.42;;;10.02;;
81124;SDS011;72192;52.114;5.424;2024-02-28T13:33:53;22.07;;;12.03;;
81124;SDS011;72192;52.114;5.424;2024-02-28T13:36:21;20.25;;;10.07;;
81124;SDS011;72192;52.114;5.424;2024-02-28T13:38:51;19.95;;;10.85;;
81124;SDS011;72192;52.114;5.424;2024-02-28T13:41:20;18.70;;;10.55;;
81124;SDS011;72192;52.114;5.424;2024-02-28T13:46:24;25.20;;;11.40;;
81124;SDS011;72192;52.114;5.424;2024-02-28T13:48:52;20.60;;;10.93;;
81124;SDS011;72192;52.114;5.424;2024-02-28T13:51:20;23.23;;;12.35;;
81124;SDS011;72192;52.114;5.424;2024-02-28T13:56:19;21.43;;;11.83;;
81124;SDS011;72192;52.114;5.424;2024-02-28T13:58:50;22.37;;;11.73;;
81124;SDS011;72192;52.114;5.424;2024-02-28T14:03:56;18.38;;;10.43;;
81124;SDS011;72192;52.114;5.424;2024-02-28T14:06:24;21.47;;;11.53;;
81124;SDS011;72192;52.114;5.424;2024-02-28T14:08:53;21.55;;;11.30;;
81124;SDS011;72192;52.114;5.424;2024-02-28T14:16:34;19.15;;;10.65;;
81124;SDS011;72192;52.114;5.424;2024-02-28T14:19:05;19.15;;;10.70;;
81124;SDS011;72192;52.114;5.424;2024-02-28T14:21:34;17.95;;;10.60;;
81124;SDS011;72192;52.114;5.424;2024-02-28T14:29:06;19.85;;;11.15;;
81124;SDS011;72192;52.114;5.424;2024-02-28T14:31:34;20.90;;;11.07;;
81124;SDS011;72192;52.114;5.424;2024-02-28T14:34:02;19.85;;;10.82;;
81124;SDS011;72192;52.114;5.424;2024-02-28T14:36:34;18.98;;;10.38;;
81124;SDS011;72192;52.114;5.424;2024-02-28T14:39:02;21.30;;;11.05;;
81124;SDS011;72192;52.114;5.424;2024-02-28T14:41:30;18.45;;;10.73;;
81124;SDS011;72192;52.114;5.424;2024-02-28T14:43:59;18.75;;;9.13;;
81124;SDS011;72192;52.114;5.424;2024-02-28T14:46:28;21.50;;;10.30;;
81124;SDS011;72192;52.114;5.424;2024-02-28T14:48:56;20.05;;;10.20;;
81124;SDS011;72192;52.114;5.424;2024-02-28T14:51:25;21.35;;;11.68;;
81124;SDS011;72192;52.114;5.424;2024-02-28T14:58:55;21.60;;;10.48;;
81124;SDS011;72192;52.114;5.424;2024-02-28T15:01:24;18.25;;;9.02;;
81124;SDS011;72192;52.114;5.424;2024-02-28T15:03:55;22.38;;;9.75;;
81124;SDS011;72192;52.114;5.424;2024-02-28T15:06:23;19.25;;;10.25;;
81124;SDS011;72192;52.114;5.424;2024-02-28T15:11:32;20.63;;;10.40;;
81124;SDS011;72192;52.114;5.424;2024-02-28T15:13:59;16.48;;;8.07;;
81124;SDS011;72192;52.114;5.424;2024-02-28T15:16:34;18.08;;;8.00;;
81124;SDS011;72192;52.114;5.424;2024-02-28T15:19:01;15.20;;;6.25;;
81124;SDS011;72192;52.114;5.424;2024-02-28T15:21:29;17.93;;;9.07;;
81124;SDS011;72192;52.114;5.424;2024-02-28T15:26:34;18.65;;;8.15;;
81124;SDS011;72192;52.114;5.424;2024-02-28T15:29:15;19.65;;;7.85;;
81124;SDS011;72192;52.114;5.424;2024-02-28T15:31:43;17.63;;;7.65;;
81124;SDS011;72192;52.114;5.424;2024-02-28T15:34:13;15.68;;;8.02;;
81124;SDS011;72192;52.114;5.424;2024-02-28T15:36:41;15.02;;;7.80;;
81124;SDS011;72192;52.114;5.424;2024-02-28T15:39:09;16.90;;;8.60;;
81124;SDS011;72192;52.114;5.424;2024-02-28T15:41:37;17.33;;;7.22;;
81124;SDS011;72192;52.114;5.424;2024-02-28T15:46:42;16.90;;;8.32;;
81124;SDS011;72192;52.114;5.424;2024-02-28T15:49:11;17.92;;;8.68;;
81124;SDS011;72192;52.114;5.424;2024-02-28T15:51:42;17.40;;;7.30;;
81124;SDS011;72192;52.114;5.424;2024-02-28T15:54:10;19.52;;;9.20;;
81124;SDS011;72192;52.114;5.424;2024-02-28T15:56:39;18.15;;;7.20;;
81124;SDS011;72192;52.114;5.424;2024-02-28T15:59:08;14.67;;;8.60;;
81124;SDS011;72192;52.114;5.424;2024-02-28T16:01:39;19.05;;;9.50;;
81124;SDS011;72192;52.114;5.424;2024-02-28T16:06:44;13.70;;;6.60;;
81124;SDS011;72192;52.114;5.424;2024-02-28T16:09:13;15.95;;;6.75;;
81124;SDS011;72192;52.114;5.424;2024-02-28T16:11:44;18.80;;;8.95;;
81124;SDS011;72192;52.114;5.424;2024-02-28T16:14:12;20.95;;;8.38;;
81124;SDS011;72192;52.114;5.424;2024-02-28T16:19:17;11.50;;;6.10;;
81124;SDS011;72192;52.114;5.424;2024-02-28T16:21:53;15.30;;;8.35;;
81124;SDS011;72192;52.114;5.424;2024-02-28T16:24:23;20.80;;;9.63;;
81124;SDS011;72192;52.114;5.424;2024-02-28T16:26:51;18.03;;;7.93;;
81124;SDS011;72192;52.114;5.424;2024-02-28T16:29:19;16.85;;;7.93;;
81124;SDS011;72192;52.114;5.424;2024-02-28T16:31:47;16.83;;;8.65;;
81124;SDS011;72192;52.114;5.424;2024-02-28T16:34:18;21.30;;;8.85;;
81124;SDS011;72192;52.114;5.424;2024-02-28T16:36:47;22.83;;;10.50;;
81124;SDS011;72192;52.114;5.424;2024-02-28T16:39:16;15.60;;;8.05;;
81124;SDS011;72192;52.114;5.424;2024-02-28T16:44:21;16.65;;;7.90;;
81124;SDS011;72192;52.114;5.424;2024-02-28T16:46:49;19.85;;;10.23;;
81124;SDS011;72192;52.114;5.424;2024-02-28T16:49:18;22.88;;;8.45;;
81124;SDS011;72192;52.114;5.424;2024-02-28T16:51:46;24.90;;;10.10;;
81124;SDS011;72192;52.114;5.424;2024-02-28T16:54:15;20.58;;;10.50;;
81124;SDS011;72192;52.114;5.424;2024-02-28T16:56:46;19.30;;;8.75;;
81124;SDS011;72192;52.114;5.424;2024-02-28T16:59:14;20.90;;;10.00;;
81124;SDS011;72192;52.114;5.424;2024-02-28T17:01:41;21.48;;;10.25;;
81124;SDS011;72192;52.114;5.424;2024-02-28T17:04:13;22.40;;;9.97;;
81124;SDS011;72192;52.114;5.424;2024-02-28T17:06:42;20.50;;;8.57;;
81124;SDS011;72192;52.114;5.424;2024-02-28T17:09:11;19.00;;;9.80;;
81124;SDS011;72192;52.114;5.424;2024-02-28T17:11:39;20.77;;;9.55;;
81124;SDS011;72192;52.114;5.424;2024-02-28T17:14:08;18.15;;;9.45;;
81124;SDS011;72192;52.114;5.424;2024-02-28T17:16:36;17.85;;;9.65;;
81124;SDS011;72192;52.114;5.424;2024-02-28T17:19:05;18.63;;;9.32;;
81124;SDS011;72192;52.114;5.424;2024-02-28T17:21:34;15.85;;;7.45;;
81124;SDS011;72192;52.114;5.424;2024-02-28T17:24:04;18.60;;;8.50;;
81124;SDS011;72192;52.114;5.424;2024-02-28T17:26:34;18.55;;;9.60;;
81124;SDS011;72192;52.114;5.424;2024-02-28T17:29:07;20.65;;;9.30;;
81124;SDS011;72192;52.114;5.424;2024-02-28T17:31:40;18.73;;;9.70;;
81124;SDS011;72192;52.114;5.424;2024-02-28T17:34:08;21.55;;;8.93;;
81124;SDS011;72192;52.114;5.424;2024-02-28T17:36:41;16.30;;;8.57;;
81124;SDS011;72192;52.114;5.424;2024-02-28T17:39:10;16.45;;;7.78;;
81124;SDS011;72192;52.114;5.424;2024-02-28T17:41:43;19.30;;;9.40;;
81124;SDS011;72192;52.114;5.424;2024-02-28T17:44:13;14.65;;;7.75;;
81124;SDS011;72192;52.114;5.424;2024-02-28T17:49:17;18.92;;;8.48;;
81124;SDS011;72192;52.114;5.424;2024-02-28T17:51:47;19.13;;;9.02;;
81124;SDS011;72192;52.114;5.424;2024-02-28T17:54:19;18.70;;;8.40;;